createdAt,value
2019-02-03T00:01:10.590Z,18.52
2019-02-03T00:03:39.412Z,19.40
2019-02-03T00:06:08.332Z,18.45
2019-02-03T00:08:37.128Z,17.17
2019-02-03T00:11:06.051Z,16.65
2019-02-03T00:13:35.112Z,19.27
2019-02-03T00:16:05.060Z,19.10
2019-02-03T00:18:33.894Z,18.92
2019-02-03T00:21:02.763Z,18.40
2019-02-03T00:23:31.587Z,18.77
2019-02-03T00:26:00.421Z,18.02
2019-02-03T00:28:29.189Z,19.85
2019-02-03T00:30:57.965Z,21.05
2019-02-03T00:33:26.761Z,18.75
2019-02-03T00:35:55.549Z,19.60
2019-02-03T00:38:25.130Z,19.90
2019-02-03T00:40:54.846Z,19.85
2019-02-03T00:43:23.600Z,18.32
2019-02-03T00:45:52.373Z,17.70
2019-02-03T00:48:21.219Z,18.10
2019-02-03T00:50:49.972Z,20.88
2019-02-03T00:53:19.137Z,18.55
2019-02-03T00:55:48.032Z,20.40
2019-02-03T00:58:16.898Z,19.15
2019-02-03T01:00:45.721Z,18.82
2019-02-03T01:03:14.481Z,19.98
2019-02-03T01:05:43.254Z,20.17
2019-02-03T01:08:12.873Z,18.42
2019-02-03T01:10:41.723Z,21.07
2019-02-03T01:13:10.649Z,20.23
2019-02-03T01:15:39.846Z,20.75
2019-02-03T01:18:08.778Z,20.15
2019-02-03T01:20:37.540Z,20.50
2019-02-03T01:23:06.334Z,22.95
2019-02-03T01:25:35.153Z,21.37
2019-02-03T01:28:04.314Z,21.65
2019-02-03T01:30:33.215Z,20.77
2019-02-03T01:33:02.053Z,21.23
2019-02-03T01:35:30.921Z,19.92
2019-02-03T01:37:59.806Z,19.20
2019-02-03T01:40:30.229Z,20.10
2019-02-03T01:42:59.692Z,22.00
2019-02-03T01:45:28.702Z,23.65
2019-02-03T01:47:57.564Z,21.12
2019-02-03T01:50:26.865Z,22.85
2019-02-03T01:52:55.644Z,23.30
2019-02-03T01:55:26.312Z,26.42
2019-02-03T01:57:55.118Z,25.17
2019-02-03T02:00:26.742Z,27.35
2019-02-03T02:02:55.921Z,27.95
2019-02-03T02:05:24.766Z,26.02
2019-02-03T02:07:53.585Z,28.47
2019-02-03T02:10:25.304Z,25.17
2019-02-03T02:12:54.181Z,27.60
2019-02-03T02:15:23.083Z,28.70
2019-02-03T02:17:52.597Z,28.38
2019-02-03T02:20:23.310Z,29.12
2019-02-03T02:22:52.680Z,28.92
2019-02-03T02:25:23.872Z,29.25
2019-02-03T02:27:52.863Z,30.37
2019-02-03T02:30:24.160Z,32.05
2019-02-03T02:32:53.018Z,24.65
2019-02-03T02:35:21.942Z,30.50
2019-02-03T02:38:05.962Z,33.10
2019-02-03T02:40:24.939Z,35.50
2019-02-03T02:42:53.853Z,30.05
2019-02-03T02:45:23.173Z,33.92
2019-02-03T02:47:52.227Z,32.93
2019-02-03T02:50:29.839Z,31.82
2019-02-03T02:52:58.777Z,31.95
2019-02-03T02:55:27.634Z,31.10
2019-02-03T02:57:56.498Z,30.88
2019-02-03T03:00:26.314Z,30.25
2019-02-03T03:02:55.159Z,24.72
2019-02-03T03:05:24.015Z,29.32
2019-02-03T03:07:52.941Z,29.82
2019-02-03T03:10:22.381Z,30.15
2019-02-03T03:12:51.217Z,29.77
2019-02-03T03:15:23.462Z,29.57
2019-02-03T03:17:52.388Z,29.85
2019-02-03T03:20:22.157Z,28.42
2019-02-03T03:22:51.329Z,29.23
2019-02-03T03:25:21.907Z,29.90
2019-02-03T03:27:51.044Z,29.27
2019-02-03T03:30:27.329Z,29.98
2019-02-03T03:32:56.419Z,30.52
2019-02-03T03:35:26.077Z,26.55
2019-02-03T03:37:54.937Z,30.70
2019-02-03T03:40:28.776Z,28.38
2019-02-03T03:42:57.771Z,28.85
2019-02-03T03:45:26.982Z,28.60
2019-02-03T03:47:56.026Z,29.75
2019-02-03T03:50:24.885Z,29.25
2019-02-03T03:52:53.797Z,28.62
2019-02-03T03:55:22.824Z,28.35
2019-02-03T03:57:51.632Z,27.58
2019-02-03T04:00:25.161Z,28.52
2019-02-03T04:02:54.188Z,28.25
2019-02-03T04:05:23.397Z,26.30
2019-02-03T04:07:52.236Z,27.30
2019-02-03T04:10:22.772Z,25.97
2019-02-03T04:12:51.810Z,28.25
2019-02-03T04:15:21.378Z,30.70
2019-02-03T04:17:50.302Z,24.75
2019-02-03T04:20:21.983Z,28.70
2019-02-03T04:22:50.814Z,28.38
2019-02-03T04:25:19.605Z,29.87
2019-02-03T04:27:48.582Z,26.23
2019-02-03T04:30:20.763Z,26.12
2019-02-03T04:32:49.607Z,26.07
2019-02-03T04:35:18.461Z,26.35
2019-02-03T04:37:47.240Z,27.37
2019-02-03T04:40:18.133Z,24.25
2019-02-03T04:42:47.248Z,26.37
2019-02-03T04:45:17.474Z,24.85
2019-02-03T04:47:46.360Z,25.75
2019-02-03T04:50:17.736Z,23.83
2019-02-03T04:52:46.594Z,25.20
2019-02-03T04:55:18.174Z,24.35
2019-02-03T04:57:47.030Z,26.48
2019-02-03T05:00:18.698Z,23.77
2019-02-03T05:02:47.613Z,22.55
2019-02-03T05:05:17.221Z,22.00
2019-02-03T05:07:45.987Z,24.90
2019-02-03T05:10:15.833Z,24.45
2019-02-03T05:12:44.657Z,22.77
2019-02-03T05:15:16.036Z,22.50
2019-02-03T05:17:44.925Z,21.68
2019-02-03T05:20:16.613Z,23.65
2019-02-03T05:22:45.851Z,23.50
2019-02-03T05:25:15.306Z,24.32
2019-02-03T05:27:44.148Z,26.15
2019-02-03T05:30:15.869Z,21.37
2019-02-03T05:32:44.763Z,23.42
2019-02-03T05:35:13.545Z,25.43
2019-02-03T05:37:42.336Z,24.02
2019-02-03T05:40:13.903Z,24.80
2019-02-03T05:42:42.795Z,23.55
2019-02-03T05:45:14.633Z,23.57
2019-02-03T05:47:43.482Z,26.42
2019-02-03T05:50:14.997Z,24.65
2019-02-03T05:52:43.845Z,24.90
2019-02-03T05:55:13.405Z,26.35
2019-02-03T05:57:42.217Z,24.85
2019-02-03T06:00:30.439Z,24.15
2019-02-03T06:02:59.298Z,25.92
2019-02-03T06:05:28.124Z,27.65
2019-02-03T06:07:56.929Z,27.10
2019-02-03T06:10:26.066Z,27.37
2019-02-03T06:12:54.883Z,28.60
2019-02-03T06:15:23.667Z,26.52
2019-02-03T06:17:52.518Z,27.10
2019-02-03T06:20:21.710Z,26.80
2019-02-03T06:22:50.436Z,26.95
2019-02-03T06:25:19.201Z,28.00
2019-02-03T06:27:48.438Z,25.43
2019-02-03T06:30:26.078Z,25.45
2019-02-03T06:32:54.884Z,25.27
2019-02-03T06:35:23.675Z,26.77
2019-02-03T06:37:52.498Z,26.77
2019-02-03T06:40:21.662Z,27.00
2019-02-03T06:42:50.484Z,27.17
2019-02-03T06:45:29.590Z,26.10
2019-02-03T06:47:59.592Z,27.73
2019-02-03T06:50:28.513Z,26.55
2019-02-03T06:52:57.457Z,25.70
2019-02-03T06:55:26.285Z,28.15
2019-02-03T06:57:55.038Z,26.90
2019-02-03T07:00:23.797Z,28.57
2019-02-03T07:02:52.640Z,29.23
2019-02-03T07:05:21.409Z,28.15
2019-02-03T07:07:50.158Z,28.07
2019-02-03T07:10:18.968Z,28.92
2019-02-03T07:12:47.712Z,29.10
2019-02-03T07:15:16.502Z,31.77
2019-02-03T07:17:45.371Z,30.10
2019-02-03T07:20:18.404Z,28.45
2019-02-03T07:22:47.253Z,28.50
2019-02-03T07:25:16.143Z,29.67
2019-02-03T07:27:45.004Z,30.85
2019-02-03T07:30:18.966Z,32.75
2019-02-03T07:32:47.871Z,29.90
2019-02-03T07:35:16.727Z,30.15
2019-02-03T07:37:45.576Z,31.27
2019-02-03T07:40:16.281Z,30.12
2019-02-03T07:42:45.043Z,30.35
2019-02-03T07:45:14.132Z,33.40
2019-02-03T07:47:43.387Z,31.02
2019-02-03T07:50:14.592Z,33.08
2019-02-03T07:52:43.428Z,29.20
2019-02-03T07:55:15.759Z,33.42
2019-02-03T07:57:44.785Z,29.02
2019-02-03T08:00:15.841Z,28.77
2019-02-03T08:02:44.698Z,29.57
2019-02-03T08:05:13.813Z,31.57
2019-02-03T08:07:42.683Z,29.67
2019-02-03T08:10:24.571Z,30.82
2019-02-03T08:12:43.985Z,30.55
2019-02-03T08:15:19.039Z,30.68
2019-02-03T08:17:47.872Z,29.87
2019-02-03T08:20:19.370Z,27.87
2019-02-03T08:22:48.237Z,30.08
2019-02-03T08:25:18.170Z,29.37
2019-02-03T08:27:47.353Z,29.45
2019-02-03T08:30:18.880Z,30.27
2019-02-03T08:32:47.743Z,29.63
2019-02-03T08:35:16.578Z,27.75
2019-02-03T08:37:45.389Z,28.07
2019-02-03T08:40:36.084Z,29.02
2019-02-03T08:42:55.928Z,31.15
2019-02-03T08:45:25.501Z,26.12
2019-02-03T08:47:54.329Z,30.68
2019-02-03T08:50:24.515Z,30.20
2019-02-03T08:52:53.659Z,27.87
2019-02-03T08:55:22.780Z,29.45
2019-02-03T08:57:51.629Z,29.32
2019-02-03T09:00:31.430Z,30.68
2019-02-03T09:03:00.318Z,28.50
2019-02-03T09:05:29.719Z,27.77
2019-02-03T09:07:58.611Z,27.10
2019-02-03T09:10:27.452Z,28.42
2019-02-03T09:12:56.611Z,27.13
2019-02-03T09:15:27.126Z,27.32
2019-02-03T09:17:55.953Z,26.48
2019-02-03T09:20:26.745Z,25.08
2019-02-03T09:22:55.691Z,30.52
2019-02-03T09:25:24.775Z,26.87
2019-02-03T09:27:53.549Z,26.30
2019-02-03T09:30:24.509Z,27.98
2019-02-03T09:32:53.672Z,27.60
2019-02-03T09:35:22.482Z,25.48
2019-02-03T09:37:51.795Z,24.85
2019-02-03T09:40:25.512Z,26.68
2019-02-03T09:42:54.303Z,24.55
2019-02-03T09:45:23.997Z,26.25
2019-02-03T09:47:53.229Z,25.30
2019-02-03T09:50:27.743Z,24.90
2019-02-03T09:52:58.171Z,25.30
2019-02-03T09:55:27.078Z,23.50
2019-02-03T09:57:56.656Z,24.37
2019-02-03T10:00:34.723Z,24.25
2019-02-03T10:03:04.995Z,23.90
2019-02-03T10:05:36.989Z,24.55
2019-02-03T10:08:04.994Z,25.55
2019-02-03T10:10:35.773Z,25.62
2019-02-03T10:13:05.375Z,24.07
2019-02-03T10:15:34.513Z,25.23
2019-02-03T10:18:04.226Z,25.30
2019-02-03T10:20:33.101Z,25.32
2019-02-03T10:23:01.860Z,23.87
2019-02-03T10:25:31.559Z,24.52
2019-02-03T10:28:00.460Z,22.27
2019-02-03T10:30:29.296Z,24.57
2019-02-03T10:32:58.138Z,24.02
2019-02-03T10:35:28.821Z,25.10
2019-02-03T10:37:58.142Z,25.75
2019-02-03T10:40:29.670Z,26.55
2019-02-03T10:42:59.955Z,25.27
2019-02-03T10:45:29.029Z,25.17
2019-02-03T10:47:57.919Z,25.10
2019-02-03T10:50:29.801Z,23.20
2019-02-03T10:52:59.226Z,22.17
2019-02-03T10:55:28.099Z,19.52
2019-02-03T10:57:57.259Z,23.77
2019-02-03T11:00:32.051Z,21.25
2019-02-03T11:03:01.012Z,22.42
2019-02-03T11:05:32.729Z,23.75
2019-02-03T11:08:01.587Z,25.70
2019-02-03T11:10:30.484Z,24.40
2019-02-03T11:12:59.300Z,23.40
2019-02-03T11:15:28.091Z,24.80
2019-02-03T11:17:56.953Z,22.85
2019-02-03T11:20:31.073Z,21.02
2019-02-03T11:23:00.132Z,23.80
2019-02-03T11:25:30.838Z,24.75
2019-02-03T11:27:59.657Z,22.13
2019-02-03T11:30:32.046Z,22.35
2019-02-03T11:33:05.926Z,23.47
2019-02-03T11:35:32.374Z,25.95
2019-02-03T11:38:01.329Z,23.15
2019-02-03T11:40:32.771Z,19.80
2019-02-03T11:43:01.584Z,22.32
2019-02-03T11:45:35.696Z,21.75
2019-02-03T11:48:08.099Z,23.32
2019-02-03T11:50:39.559Z,21.33
2019-02-03T11:53:10.725Z,20.68
2019-02-03T11:55:39.501Z,22.87
2019-02-03T11:58:08.857Z,22.55
2019-02-03T12:00:37.809Z,23.02
2019-02-03T12:03:07.468Z,22.93
2019-02-03T12:05:36.232Z,23.02
2019-02-03T12:08:05.533Z,22.62
2019-02-03T12:10:34.329Z,22.02
2019-02-03T12:13:03.466Z,21.05
2019-02-03T12:15:32.220Z,23.55
2019-02-03T12:18:01.008Z,22.10
2019-02-03T12:20:29.853Z,22.27
2019-02-03T12:22:58.715Z,21.95
2019-02-03T12:25:33.327Z,24.23
2019-02-03T12:28:02.200Z,20.70
2019-02-03T12:30:32.920Z,22.67
2019-02-03T12:33:02.589Z,21.77
2019-02-03T12:35:31.359Z,20.82
2019-02-03T12:38:00.202Z,21.85
2019-02-03T12:40:31.804Z,20.50
2019-02-03T12:43:00.615Z,21.15
2019-02-03T12:45:30.111Z,22.15
2019-02-03T12:47:58.977Z,21.80
2019-02-03T12:50:27.846Z,20.02
2019-02-03T12:52:56.653Z,20.17
2019-02-03T12:55:28.345Z,19.15
2019-02-03T12:57:57.188Z,18.52
2019-02-03T13:00:28.621Z,18.60
2019-02-03T13:02:57.514Z,19.62
2019-02-03T13:05:27.688Z,22.27
2019-02-03T13:07:57.726Z,20.90
2019-02-03T13:10:28.554Z,22.85
2019-02-03T13:12:57.303Z,18.57
2019-02-03T13:15:29.008Z,20.02
2019-02-03T13:17:57.803Z,18.10
2019-02-03T13:20:29.375Z,19.50
2019-02-03T13:22:58.713Z,20.35
2019-02-03T13:25:27.796Z,19.82
2019-02-03T13:27:56.610Z,19.82
2019-02-03T13:30:31.236Z,19.45
2019-02-03T13:33:00.046Z,18.70
2019-02-03T13:35:28.858Z,19.70
2019-02-03T13:37:57.857Z,17.12
2019-02-03T13:40:26.856Z,20.77
2019-02-03T13:42:55.636Z,18.20
2019-02-03T13:45:27.778Z,19.62
2019-02-03T13:47:59.135Z,18.80
2019-02-03T13:50:28.893Z,20.00
2019-02-03T13:52:58.031Z,20.72
2019-02-03T13:55:27.656Z,19.42
2019-02-03T13:57:56.667Z,20.20
2019-02-03T14:00:28.620Z,18.80
2019-02-03T14:02:57.509Z,19.82
2019-02-03T14:05:26.367Z,18.07
2019-02-03T14:07:55.144Z,18.05
2019-02-03T14:10:29.588Z,17.55
2019-02-03T14:12:58.757Z,16.90
2019-02-03T14:15:27.782Z,16.87
2019-02-03T14:17:56.682Z,18.82
2019-02-03T14:20:30.913Z,19.80
2019-02-03T14:23:00.266Z,15.00
2019-02-03T14:25:29.957Z,14.68
2019-02-03T14:28:00.394Z,18.32
2019-02-03T14:30:40.578Z,16.90
2019-02-03T14:33:05.400Z,16.30
2019-02-03T14:35:34.430Z,18.30
2019-02-03T14:38:04.621Z,16.65
2019-02-03T14:40:33.648Z,17.90
2019-02-03T14:43:02.578Z,12.50
2019-02-03T14:45:31.597Z,16.60
2019-02-03T14:48:00.419Z,17.65
2019-02-03T14:50:29.195Z,17.27
2019-02-03T14:53:04.236Z,18.48
2019-02-03T14:55:38.839Z,16.75
2019-02-03T14:58:07.974Z,15.35
2019-02-03T15:00:50.195Z,16.30
2019-02-03T15:03:20.336Z,16.25
2019-02-03T15:05:49.337Z,17.75
2019-02-03T15:08:18.234Z,17.77
2019-02-03T15:10:47.057Z,16.07
2019-02-03T15:13:16.033Z,15.23
2019-02-03T15:15:45.210Z,16.40
2019-02-03T15:18:14.011Z,16.25
2019-02-03T15:20:42.816Z,14.73
2019-02-03T15:23:11.865Z,14.47
2019-02-03T15:25:40.839Z,16.07
2019-02-03T15:28:10.810Z,13.20
2019-02-03T15:30:41.868Z,15.95
2019-02-03T15:33:10.681Z,15.40
2019-02-03T15:35:39.455Z,15.25
2019-02-03T15:38:10.198Z,13.45
2019-02-03T15:40:38.993Z,13.13
2019-02-03T15:43:07.870Z,15.70
2019-02-03T15:45:36.771Z,15.72
2019-02-03T15:48:06.359Z,15.88
2019-02-03T15:50:35.260Z,17.48
2019-02-03T15:55:36.127Z,14.85
2019-02-03T15:58:10.437Z,14.50
2019-02-03T16:03:45.679Z,13.62
2019-02-03T16:06:18.783Z,14.13
2019-02-03T16:08:52.047Z,14.50
2019-02-03T16:11:29.685Z,15.32
2019-02-03T16:13:59.074Z,14.87
2019-02-03T16:16:32.367Z,15.50
2019-02-03T16:19:08.016Z,14.65
2019-02-03T16:21:43.287Z,14.10
2019-02-03T16:24:14.129Z,15.00
2019-02-03T16:26:49.233Z,12.73
2019-02-03T16:32:14.964Z,15.32
2019-02-03T16:34:47.114Z,15.32
2019-02-03T16:37:21.272Z,14.87
2019-02-03T16:39:59.787Z,13.28
2019-02-03T16:42:42.578Z,14.83
2019-02-03T16:45:13.068Z,15.03
2019-02-03T16:47:50.804Z,14.28
2019-02-03T16:50:31.642Z,12.63
2019-02-03T16:53:05.402Z,13.55
2019-02-03T16:55:36.355Z,12.75
2019-02-03T16:58:06.960Z,15.08
2019-02-03T17:00:44.615Z,13.98
2019-02-03T17:03:22.950Z,14.70
2019-02-03T17:06:07.733Z,13.00
2019-02-03T17:08:33.521Z,12.93
2019-02-03T17:11:02.376Z,14.53
2019-02-03T17:13:31.220Z,11.95
2019-02-03T17:16:00.114Z,15.35
2019-02-03T17:18:28.969Z,14.70
2019-02-03T17:21:01.995Z,14.20
2019-02-03T17:23:28.512Z,13.80
2019-02-03T17:26:02.976Z,15.08
2019-02-03T17:28:31.775Z,12.37
2019-02-03T17:31:00.566Z,10.60
2019-02-03T17:33:29.433Z,15.05
2019-02-03T17:35:58.373Z,15.40
2019-02-03T17:38:27.205Z,12.65
2019-02-03T17:40:56.092Z,13.70
2019-02-03T17:43:24.852Z,12.10
2019-02-03T17:45:54.097Z,11.85
2019-02-03T17:48:23.042Z,12.13
2019-02-03T17:50:51.875Z,12.03
2019-02-03T17:53:20.718Z,11.97
2019-02-03T17:55:49.591Z,12.75
2019-02-03T17:58:18.492Z,12.73
2019-02-03T18:00:49.072Z,12.50
2019-02-03T18:03:18.002Z,15.55
2019-02-03T18:05:47.337Z,14.93
2019-02-03T18:08:16.470Z,16.65
2019-02-03T18:10:45.270Z,13.25
2019-02-03T18:13:14.088Z,15.15
2019-02-03T18:15:42.945Z,14.95
2019-02-03T18:18:12.042Z,12.93
2019-02-03T18:20:40.889Z,14.00
2019-02-03T18:23:10.046Z,14.55
2019-02-03T18:25:39.267Z,14.78
2019-02-03T18:28:08.082Z,15.95
2019-02-03T18:30:38.797Z,15.03
2019-02-03T18:33:08.629Z,15.38
2019-02-03T18:35:37.463Z,12.37
2019-02-03T18:38:09.500Z,13.68
2019-02-03T18:40:38.528Z,15.50
2019-02-03T18:43:07.912Z,12.90
2019-02-03T18:45:36.788Z,12.60
2019-02-03T18:48:05.949Z,12.50
2019-02-03T18:50:35.078Z,15.08
2019-02-03T18:53:04.398Z,14.83
2019-02-03T18:55:38.553Z,14.83
2019-02-03T18:58:07.623Z,15.70
2019-02-03T19:00:38.075Z,13.98
2019-02-03T19:03:09.498Z,12.35
2019-02-03T19:05:40.410Z,12.75
2019-02-03T19:08:09.216Z,13.35
2019-02-03T19:10:38.016Z,13.68
2019-02-03T19:13:07.039Z,14.93
2019-02-03T19:15:36.213Z,14.05
2019-02-03T19:18:06.417Z,13.60
2019-02-03T19:20:37.511Z,13.28
2019-02-03T19:23:07.292Z,13.70
2019-02-03T19:25:36.175Z,12.90
2019-02-03T19:28:06.242Z,12.55
2019-02-03T19:30:37.461Z,12.98
2019-02-03T19:33:06.720Z,12.45
2019-02-03T19:35:36.062Z,12.10
2019-02-03T19:38:07.070Z,13.30
2019-02-03T19:40:36.194Z,12.98
2019-02-03T19:43:06.612Z,13.45
2019-02-03T19:45:35.437Z,11.08
2019-02-03T19:48:05.361Z,12.07
2019-02-03T19:50:39.073Z,11.60
2019-02-03T19:53:09.228Z,12.10
2019-02-03T19:55:38.214Z,12.25
2019-02-03T19:58:07.427Z,12.15
2019-02-03T20:00:44.425Z,11.90
2019-02-03T20:03:13.270Z,10.95
2019-02-03T20:05:42.761Z,11.70
2019-02-03T20:08:12.541Z,12.82
2019-02-03T20:10:41.368Z,10.08
2019-02-03T20:13:10.196Z,11.30
2019-02-03T20:15:39.130Z,11.53
2019-02-03T20:18:08.091Z,12.58
2019-02-03T20:20:41.270Z,9.15
2019-02-03T20:23:10.522Z,9.30
2019-02-03T20:25:39.682Z,14.28
2019-02-03T20:28:09.003Z,10.82
2019-02-03T20:30:39.578Z,9.98
2019-02-03T20:33:08.392Z,11.55
2019-02-03T20:35:37.213Z,11.25
2019-02-03T20:38:06.473Z,9.50
2019-02-03T20:40:38.539Z,8.63
2019-02-03T20:43:07.899Z,9.75
2019-02-03T20:45:48.411Z,9.40
2019-02-03T20:48:07.497Z,8.95
2019-02-03T20:50:38.019Z,8.80
2019-02-03T20:53:06.857Z,7.17
2019-02-03T20:55:35.715Z,6.90
2019-02-03T20:58:04.569Z,5.47
2019-02-03T21:00:35.641Z,8.33
2019-02-03T21:03:05.665Z,6.53
2019-02-03T21:05:34.683Z,6.42
2019-02-03T21:08:13.506Z,7.17
2019-02-03T21:10:42.634Z,6.90
2019-02-03T21:13:12.028Z,7.20
2019-02-03T21:15:40.973Z,7.92
2019-02-03T21:18:10.122Z,8.25
2019-02-03T21:20:38.963Z,8.25
2019-02-03T21:23:07.730Z,8.50
2019-02-03T21:25:37.104Z,9.55
2019-02-03T21:28:06.278Z,8.28
2019-02-03T21:30:37.434Z,7.45
2019-02-03T21:33:06.441Z,7.85
2019-02-03T21:35:35.176Z,7.03
2019-02-03T21:38:04.859Z,9.15
2019-02-03T21:40:33.690Z,6.85
2019-02-03T21:43:02.476Z,7.28
2019-02-03T21:45:31.391Z,7.17
2019-02-03T21:48:00.305Z,8.13
2019-02-03T21:50:32.305Z,7.33
2019-02-03T21:53:01.075Z,7.37
2019-02-03T21:55:29.921Z,7.17
2019-02-03T21:57:58.766Z,6.85
2019-02-03T22:00:30.759Z,6.92
2019-02-03T22:02:59.702Z,8.23
2019-02-03T22:05:28.950Z,7.85
2019-02-03T22:07:57.874Z,6.90
2019-02-03T22:10:35.461Z,6.83
2019-02-03T22:13:05.770Z,7.00
2019-02-03T22:15:34.656Z,8.33
2019-02-03T22:18:03.610Z,6.20
2019-02-03T22:20:32.518Z,6.12
2019-02-03T22:23:01.268Z,7.28
2019-02-03T22:25:30.021Z,6.37
2019-02-03T22:27:58.757Z,7.00
2019-02-03T22:30:30.022Z,6.85
2019-02-03T22:32:58.885Z,7.58
2019-02-03T22:35:27.738Z,6.25
2019-02-03T22:37:56.603Z,7.25
2019-02-03T22:40:25.749Z,6.42
2019-02-03T22:42:54.587Z,6.40
2019-02-03T22:45:24.815Z,5.78
2019-02-03T22:47:54.021Z,6.50
2019-02-03T22:50:24.938Z,7.30
2019-02-03T22:52:53.892Z,7.15
2019-02-03T22:55:22.702Z,6.55
2019-02-03T22:57:51.483Z,5.17
2019-02-03T23:00:52.031Z,5.83
2019-02-03T23:03:27.026Z,6.80
2019-02-03T23:05:55.878Z,5.60
2019-02-03T23:08:24.712Z,5.50
2019-02-03T23:10:53.524Z,5.83
2019-02-03T23:13:22.354Z,6.22
2019-02-03T23:15:51.425Z,5.85
2019-02-03T23:18:20.262Z,6.40
2019-02-03T23:20:49.162Z,6.25
2019-02-03T23:23:17.969Z,7.28
2019-02-03T23:25:46.765Z,6.97
2019-02-03T23:28:15.585Z,6.78
2019-02-03T23:30:44.630Z,6.95
2019-02-03T23:33:13.424Z,7.00
2019-02-03T23:35:42.278Z,6.33
2019-02-03T23:38:11.058Z,6.40
2019-02-03T23:40:39.872Z,6.35
2019-02-03T23:43:09.092Z,6.10
2019-02-03T23:45:37.904Z,6.75
2019-02-03T23:48:06.748Z,7.20
2019-02-03T23:50:35.988Z,6.15
2019-02-03T23:53:04.800Z,7.00
2019-02-03T23:55:33.655Z,5.78
2019-02-03T23:58:02.482Z,6.85
